Time;durP1;ratioP1;P1;durP2;ratioP2;P2;SDS_P1;SDS_P2;PMS_P1;PMS_P2;Temp;Humidity;BMP_temperature;BMP_pressure;BME280_temperature;BME280_humidity;BME280_pressure;Samples;Min_cycle;Max_cycle;Signal;HPM_P1;HPM_P2
2021/01/23 00:00:52;;;;;;;31.70;15.53;;;2.60;89.40;;;;;;4979697;28;20041;-66
2021/01/23 00:03:18;;;;;;;27.77;14.93;;;2.60;89.30;;;;;;4993535;28;20042;-65
2021/01/23 00:05:45;;;;;;;33.07;16.37;;;2.60;89.20;;;;;;5013789;28;20041;-66
2021/01/23 00:08:10;;;;;;;37.80;16.83;;;2.50;89.00;;;;;;5013717;28;20041;-65
2021/01/23 00:10:37;;;;;;;30.50;16.37;;;2.50;89.20;;;;;;5013782;28;20034;-64
2021/01/23 00:13:03;;;;;;;33.73;16.50;;;2.50;89.80;;;;;;5013814;28;20550;-66
2021/01/23 00:15:29;;;;;;;31.77;16.00;;;2.50;89.70;;;;;;4994016;28;20061;-66
2021/01/23 00:17:54;;;;;;;29.83;16.00;;;2.50;89.90;;;;;;5014139;28;20037;-65
2021/01/23 00:20:20;;;;;;;35.73;16.97;;;2.50;89.80;;;;;;5013358;28;20180;-65
2021/01/23 00:22:46;;;;;;;33.17;16.97;;;2.50;89.80;;;;;;5013577;28;20038;-65
2021/01/23 00:25:12;;;;;;;33.13;16.63;;;2.40;89.70;;;;;;5012423;28;20414;-65
2021/01/23 00:27:40;;;;;;;28.93;17.17;;;2.40;89.90;;;;;;5013954;28;20034;-65
2021/01/23 00:30:07;;;;;;;35.63;16.93;;;2.40;90.10;;;;;;5013614;28;20034;-65
2021/01/23 00:32:33;;;;;;;32.73;16.87;;;2.40;90.00;;;;;;4995669;28;20041;-65
2021/01/23 00:34:59;;;;;;;32.93;17.37;;;2.40;89.90;;;;;;5013701;28;20038;-65
2021/01/23 00:37:25;;;;;;;36.57;17.80;;;2.30;90.00;;;;;;5013262;28;20125;-65
2021/01/23 00:39:50;;;;;;;37.00;18.07;;;2.30;90.20;;;;;;5013604;28;20399;-66
2021/01/23 00:42:16;;;;;;;36.23;17.63;;;2.40;90.20;;;;;;4991081;28;20034;-65
2021/01/23 00:44:42;;;;;;;36.03;17.83;;;2.40;90.30;;;;;;4993894;28;20026;-66
2021/01/23 00:47:08;;;;;;;36.40;18.30;;;2.30;90.30;;;;;;5013661;28;20033;-65
2021/01/23 00:49:33;;;;;;;40.40;18.43;;;2.40;90.40;;;;;;5013164;28;20126;-64
2021/01/23 00:51:59;;;;;;;38.47;17.63;;;2.40;90.30;;;;;;4991950;28;20495;-64
2021/01/23 00:54:25;;;;;;;33.97;17.90;;;2.40;90.40;;;;;;5009207;28;20037;-64
2021/01/23 00:56:51;;;;;;;37.30;18.60;;;2.40;90.50;;;;;;4995432;28;20084;-64
2021/01/23 00:59:17;;;;;;;35.37;17.70;;;2.40;90.30;;;;;;4992473;28;20069;-64
2021/01/23 01:01:43;;;;;;;38.20;19.43;;;2.40;90.30;;;;;;5010878;28;20398;-66
2021/01/23 01:04:22;;;;;;;35.73;18.17;;;2.40;90.40;;;;;;4977986;28;20039;-66
2021/01/23 01:06:48;;;;;;;39.17;18.77;;;2.30;90.40;;;;;;5012980;28;20422;-64
2021/01/23 01:09:14;;;;;;;37.93;19.30;;;2.30;90.50;;;;;;5012792;28;20037;-65
2021/01/23 01:11:40;;;;;;;39.43;18.47;;;2.30;90.40;;;;;;4995014;28;20034;-65
2021/01/23 01:14:05;;;;;;;40.73;18.63;;;2.30;90.40;;;;;;4978968;28;20029;-65
2021/01/23 01:16:31;;;;;;;37.10;18.43;;;2.30;90.40;;;;;;5013005;28;20042;-65
2021/01/23 01:18:57;;;;;;;36.77;18.93;;;2.30;90.50;;;;;;5012845;28;20042;-65
2021/01/23 01:21:23;;;;;;;38.50;18.63;;;2.20;90.40;;;;;;5011770;28;20042;-65
2021/01/23 01:23:48;;;;;;;38.13;17.73;;;2.20;90.40;;;;;;5012879;28;20041;-65
2021/01/23 01:26:14;;;;;;;39.37;18.80;;;2.20;90.50;;;;;;5012415;28;20510;-65
2021/01/23 01:28:40;;;;;;;40.30;19.90;;;2.20;90.50;;;;;;5011473;28;20076;-64
2021/01/23 01:31:06;;;;;;;39.13;19.53;;;2.10;90.60;;;;;;4994491;28;20415;-65
2021/01/23 01:33:31;;;;;;;42.70;19.93;;;2.10;90.70;;;;;;5010856;28;20038;-65
2021/01/23 01:35:57;;;;;;;38.77;19.27;;;2.20;90.80;;;;;;5012718;28;20395;-65
2021/01/23 01:38:23;;;;;;;41.00;19.23;;;2.20;90.80;;;;;;5012279;28;20379;-66
2021/01/23 01:40:52;;;;;;;38.40;19.87;;;2.20;90.80;;;;;;5011850;28;20073;-64
2021/01/23 01:43:18;;;;;;;35.80;18.83;;;2.20;90.90;;;;;;5012339;28;20057;-65
2021/01/23 01:45:44;;;;;;;39.60;19.67;;;2.10;90.80;;;;;;5011973;28;20041;-65
2021/01/23 01:48:13;;;;;;;37.23;19.07;;;2.20;90.90;;;;;;5012549;28;20099;-65
2021/01/23 01:50:39;;;;;;;35.50;19.23;;;2.20;91.00;;;;;;4993818;28;20061;-65
2021/01/23 01:53:06;;;;;;;39.10;18.80;;;2.20;90.90;;;;;;5010660;28;20518;-64
2021/01/23 01:55:34;;;;;;;34.93;18.27;;;2.20;90.80;;;;;;5012019;28;20042;-65
2021/01/23 01:58:02;;;;;;;41.47;19.57;;;2.20;90.80;;;;;;4994350;28;20057;-65
2021/01/23 02:00:28;;;;;;;36.60;18.87;;;2.20;90.90;;;;;;4994066;28;20034;-65
2021/01/23 02:03:09;;;;;;;39.83;18.77;;;2.20;90.90;;;;;;5011284;28;20181;-65
2021/01/23 02:06:00;;;;;;;44.47;20.10;;;2.10;90.90;;;;;;5012211;28;20042;-66
2021/01/23 02:08:43;;;;;;;36.63;19.58;;;2.10;90.90;;;;;;5011870;28;20097;-65
2021/01/23 02:11:34;;;;;;;39.60;19.67;;;2.20;91.10;;;;;;4989926;28;20089;-66
2021/01/23 02:14:18;;;;;;;36.58;19.45;;;2.10;91.00;;;;;;5005398;28;20037;-66
2021/01/23 02:16:48;;;;;;;42.27;20.83;;;2.20;91.00;;;;;;5011726;28;20033;-65
2021/01/23 02:19:32;;;;;;;38.73;20.13;;;2.20;91.00;;;;;;5011904;28;20034;-65
2021/01/23 02:22:43;;;;;;;43.50;20.67;;;2.20;91.10;;;;;;5010929;28;20038;-66
2021/01/23 02:25:10;;;;;;;37.58;20.27;;;2.20;91.10;;;;;;4986604;28;20046;-65
2021/01/23 02:28:08;;;;;;;38.27;19.47;;;2.10;91.10;;;;;;5011550;28;20044;-65
2021/01/23 02:30:44;;;;;;;40.37;20.50;;;2.20;91.10;;;;;;4963610;28;20486;-65
2021/01/23 02:33:12;;;;;;;38.13;18.73;;;2.10;91.00;;;;;;5011275;28;20046;-71
2021/01/23 02:35:39;;;;;;;40.17;19.63;;;2.10;91.10;;;;;;5011552;28;20036;-65
2021/01/23 02:38:07;;;;;;;39.60;18.77;;;2.10;91.10;;;;;;5011660;28;20034;-65
2021/01/23 02:40:33;;;;;;;37.37;18.30;;;2.10;91.10;;;;;;5010674;28;20041;-66
2021/01/23 02:42:59;;;;;;;39.27;19.00;;;2.10;91.20;;;;;;5011098;28;20042;-66
2021/01/23 02:45:25;;;;;;;34.97;18.30;;;2.10;91.20;;;;;;5010947;28;20045;-65
2021/01/23 02:47:50;;;;;;;38.97;17.83;;;2.00;91.10;;;;;;5011353;28;20037;-65
2021/01/23 02:50:17;;;;;;;34.77;18.07;;;2.00;91.20;;;;;;4993492;28;20029;-65
2021/01/23 02:52:52;;;;;;;39.63;18.97;;;2.00;91.20;;;;;;4976167;28;20050;-66
2021/01/23 02:55:25;;;;;;;38.40;18.83;;;2.00;91.20;;;;;;5011403;28;20044;-65
2021/01/23 02:57:54;;;;;;;37.57;18.77;;;2.00;91.20;;;;;;5010822;28;20041;-65
2021/01/23 03:00:24;;;;;;;38.90;18.70;;;2.00;91.20;;;;;;5010938;28;20034;-66
2021/01/23 03:02:56;;;;;;;34.85;17.33;;;2.00;91.20;;;;;;5002516;28;20042;-65
2021/01/23 03:05:26;;;;;;;37.63;18.50;;;2.00;91.50;;;;;;4993658;28;20120;-65
2021/01/23 03:07:54;;;;;;;35.85;18.20;;;2.00;91.30;;;;;;5010813;28;20037;-66
2021/01/23 03:10:37;;;;;;;37.00;18.30;;;1.90;91.30;;;;;;5010722;28;20025;-65
2021/01/23 03:13:04;;;;;;;34.97;18.10;;;1.90;91.30;;;;;;4993106;28;20042;-65
2021/01/23 03:15:29;;;;;;;39.80;18.43;;;1.90;91.30;;;;;;5011114;28;20049;-65
2021/01/23 03:17:56;;;;;;;33.53;16.57;;;1.90;91.30;;;;;;5011052;28;20038;-65
2021/01/23 03:20:22;;;;;;;34.87;17.47;;;1.90;91.30;;;;;;5010323;28;20034;-65
2021/01/23 03:22:48;;;;;;;36.23;18.90;;;1.90;91.30;;;;;;5010670;28;20130;-66
2021/01/23 03:25:14;;;;;;;38.00;18.87;;;1.90;91.30;;;;;;5010676;28;20085;-64
2021/01/23 03:27:39;;;;;;;37.23;17.90;;;1.90;91.40;;;;;;5011008;28;20179;-65
2021/01/23 03:30:06;;;;;;;40.77;18.70;;;1.80;91.40;;;;;;5010488;28;20034;-66
2021/01/23 03:32:31;;;;;;;36.30;17.53;;;1.80;91.40;;;;;;5009937;28;20169;-65
2021/01/23 03:34:57;;;;;;;33.77;19.10;;;1.90;91.40;;;;;;5010938;28;20121;-64
2021/01/23 03:37:26;;;;;;;41.00;20.33;;;1.80;91.40;;;;;;4993345;28;20030;-65
2021/01/23 03:39:52;;;;;;;40.60;19.20;;;1.80;91.40;;;;;;4989845;28;20045;-65
2021/01/23 03:42:18;;;;;;;38.60;19.37;;;1.80;91.40;;;;;;5006149;28;20038;-65
2021/01/23 03:44:44;;;;;;;38.80;19.40;;;1.80;91.40;;;;;;4992265;28;20057;-65
2021/01/23 03:47:09;;;;;;;36.60;19.00;;;1.80;91.40;;;;;;5010925;28;20523;-64
2021/01/23 03:49:35;;;;;;;38.43;19.73;;;1.80;91.40;;;;;;5010256;28;20494;-65
2021/01/23 03:52:01;;;;;;;39.03;19.97;;;1.80;91.50;;;;;;4992525;28;20038;-65
2021/01/23 03:54:27;;;;;;;41.17;18.93;;;1.70;91.40;;;;;;5010705;28;20044;-64
2021/01/23 03:56:53;;;;;;;37.90;18.93;;;1.80;91.50;;;;;;5010223;28;20029;-65
2021/01/23 03:59:19;;;;;;;38.00;19.10;;;1.70;91.50;;;;;;5010730;28;20030;-65
2021/01/23 04:01:44;;;;;;;41.60;20.47;;;1.70;91.50;;;;;;5009535;28;20104;-65
2021/01/23 04:04:10;;;;;;;42.90;21.53;;;1.70;91.50;;;;;;4992901;28;20444;-65
2021/01/23 04:06:36;;;;;;;42.50;21.43;;;1.70;91.50;;;;;;5010609;28;20038;-65
2021/01/23 04:09:02;;;;;;;41.50;21.10;;;1.70;91.50;;;;;;5009079;28;20137;-65
2021/01/23 04:11:28;;;;;;;40.07;20.87;;;1.70;91.60;;;;;;4992416;28;20124;-64
2021/01/23 04:13:53;;;;;;;38.33;20.00;;;1.70;91.60;;;;;;4992523;28;20154;-64
2021/01/23 04:16:19;;;;;;;39.13;20.33;;;1.70;91.60;;;;;;4989610;28;20045;-65
2021/01/23 04:18:46;;;;;;;40.87;20.07;;;1.70;91.60;;;;;;4996620;28;20092;-65
2021/01/23 04:21:12;;;;;;;41.93;21.00;;;1.70;91.60;;;;;;5012930;28;20126;-63
2021/01/23 04:23:38;;;;;;;39.90;20.27;;;1.70;91.70;;;;;;4996507;28;20146;-65
2021/01/23 04:26:03;;;;;;;43.67;20.90;;;1.70;91.70;;;;;;5013622;28;20096;-65
2021/01/23 04:28:30;;;;;;;44.40;21.07;;;1.70;91.70;;;;;;5013849;28;20502;-64
2021/01/23 04:30:55;;;;;;;42.33;20.93;;;1.70;91.70;;;;;;4976309;28;20042;-66
2021/01/23 04:33:21;;;;;;;36.27;19.00;;;1.70;91.70;;;;;;4991722;28;20117;-65
2021/01/23 04:35:47;;;;;;;44.00;20.33;;;1.70;91.70;;;;;;5012677;28;20080;-65
2021/01/23 04:38:12;;;;;;;43.63;21.07;;;1.70;91.70;;;;;;5013805;28;20605;-65
2021/01/23 04:40:38;;;;;;;38.80;20.33;;;1.70;91.70;;;;;;5012494;28;20038;-64
2021/01/23 04:43:04;;;;;;;43.23;21.27;;;1.70;91.70;;;;;;5013636;28;20079;-65
2021/01/23 04:45:29;;;;;;;40.07;20.87;;;1.70;91.70;;;;;;5011978;28;20049;-66
2021/01/23 04:47:56;;;;;;;43.37;21.60;;;1.70;91.70;;;;;;5013585;28;20049;-65
2021/01/23 04:50:22;;;;;;;44.27;21.83;;;1.70;91.70;;;;;;5013064;28;20402;-65
2021/01/23 04:52:47;;;;;;;48.73;22.17;;;1.70;91.70;;;;;;5012726;28;20049;-65
2021/01/23 04:55:13;;;;;;;42.93;21.87;;;1.70;91.70;;;;;;5013562;28;20483;-65
2021/01/23 04:57:42;;;;;;;49.37;23.23;;;1.70;92.00;;;;;;4995533;28;20044;-65
2021/01/23 05:00:10;;;;;;;48.53;21.97;;;1.70;91.80;;;;;;5013084;28;20038;-65
2021/01/23 05:02:36;;;;;;;43.23;21.27;;;1.70;91.80;;;;;;5012722;28;20061;-65
2021/01/23 05:05:03;;;;;;;40.10;20.40;;;1.70;91.80;;;;;;5012907;28;20060;-65
2021/01/23 05:07:30;;;;;;;44.07;22.00;;;1.70;91.80;;;;;;4977176;28;20026;-65
2021/01/23 05:09:57;;;;;;;44.57;21.03;;;1.70;91.80;;;;;;5012472;28;20518;-65
2021/01/23 05:12:33;;;;;;;48.23;22.10;;;1.60;91.80;;;;;;4995185;28;20188;-65
2021/01/23 05:14:59;;;;;;;44.10;22.00;;;1.60;91.80;;;;;;5012682;28;20038;-65
2021/01/23 05:17:24;;;;;;;42.07;21.63;;;1.60;91.80;;;;;;5013080;28;20034;-65
2021/01/23 05:19:50;;;;;;;43.67;21.37;;;1.60;91.80;;;;;;5012825;28;20038;-65
2021/01/23 05:22:16;;;;;;;45.40;20.07;;;1.60;91.80;;;;;;5012123;28;20085;-65
2021/01/23 05:24:52;;;;;;;40.63;20.40;;;1.60;91.80;;;;;;4994258;28;20076;-65
2021/01/23 05:27:18;;;;;;;37.67;18.63;;;1.60;91.80;;;;;;5012452;28;20137;-65
2021/01/23 05:29:58;;;;;;;44.23;20.83;;;1.60;91.80;;;;;;4994369;28;20422;-65
2021/01/23 05:32:24;;;;;;;37.57;19.27;;;1.60;91.70;;;;;;4995074;28;20092;-66
2021/01/23 05:34:50;;;;;;;41.77;21.37;;;1.50;91.80;;;;;;5004610;28;20495;-66
2021/01/23 05:37:37;;;;;;;43.43;21.60;;;1.50;91.80;;;;;;4991310;28;20042;-65
2021/01/23 05:40:03;;;;;;;46.20;23.53;;;1.50;91.90;;;;;;5006275;28;20046;-65
2021/01/23 05:42:29;;;;;;;46.90;22.00;;;1.50;92.00;;;;;;5011548;28;20108;-64
2021/01/23 05:45:13;;;;;;;50.77;23.40;;;1.50;92.00;;;;;;5012366;28;20498;-65
2021/01/23 05:47:39;;;;;;;49.63;23.07;;;1.50;92.00;;;;;;5011894;28;20475;-63
2021/01/23 05:50:09;;;;;;;44.80;21.87;;;1.50;91.90;;;;;;5012186;28;20384;-66
2021/01/23 05:52:36;;;;;;;48.15;23.27;;;1.50;92.00;;;;;;5011592;28;20121;-65
2021/01/23 05:55:04;;;;;;;43.23;20.67;;;1.50;92.00;;;;;;5012231;28;20117;-65
2021/01/23 05:57:30;;;;;;;45.33;20.20;;;1.50;91.90;;;;;;4994303;28;20030;-66
2021/01/23 05:59:56;;;;;;;44.97;20.63;;;1.50;92.00;;;;;;4994537;28;20403;-65
2021/01/23 06:02:23;;;;;;;41.77;20.00;;;1.50;91.90;;;;;;5011628;28;20038;-65
2021/01/23 06:04:50;;;;;;;48.67;22.57;;;1.50;91.90;;;;;;5011654;28;20085;-65
2021/01/23 06:07:41;;;;;;;45.70;22.00;;;1.40;92.00;;;;;;5012089;28;20041;-65
2021/01/23 06:10:30;;;;;;;54.30;24.77;;;1.40;92.00;;;;;;5011667;28;20494;-65
2021/01/23 06:12:56;;;;;;;45.87;21.20;;;1.40;92.10;;;;;;4996111;28;20399;-64
2021/01/23 06:15:37;;;;;;;49.67;21.97;;;1.40;92.10;;;;;;5011941;28;20040;-63
2021/01/23 06:18:08;;;;;;;48.90;22.88;;;1.40;92.10;;;;;;4993941;28;20034;-65
2021/01/23 06:20:40;;;;;;;57.83;24.63;;;1.50;92.10;;;;;;4977981;28;20030;-65
2021/01/23 06:23:06;;;;;;;45.90;22.63;;;1.40;92.10;;;;;;5010032;28;20038;-65
2021/01/23 06:25:56;;;;;;;53.80;25.27;;;1.50;92.10;;;;;;4994461;28;20108;-65
2021/01/23 06:28:21;;;;;;;51.17;23.20;;;1.50;92.20;;;;;;4997930;28;21681;-65
2021/01/23 06:30:48;;;;;;;49.30;23.63;;;1.50;92.10;;;;;;5011079;28;20112;-65
2021/01/23 06:33:22;;;;;;;49.33;23.90;;;1.50;92.10;;;;;;4993526;28;20042;-65
2021/01/23 06:36:06;;;;;;;58.63;24.73;;;1.40;92.10;;;;;;5011623;28;20042;-64
2021/01/23 06:38:33;;;;;;;59.93;26.33;;;1.40;92.20;;;;;;5011064;28;20517;-64
2021/01/23 06:41:28;;;;;;;52.37;25.17;;;1.40;92.20;;;;;;5010602;28;20387;-64
2021/01/23 06:44:17;;;;;;;54.50;25.47;;;1.50;92.20;;;;;;5009941;28;20126;-65
2021/01/23 06:46:50;;;;;;;56.43;25.27;;;1.40;92.20;;;;;;4994139;28;20034;-65
2021/01/23 06:49:16;;;;;;;76.37;36.20;;;1.40;92.20;;;;;;4990617;28;20069;-65
2021/01/23 06:51:42;;;;;;;145.13;61.57;;;1.40;92.20;;;;;;5009252;28;20038;-65
2021/01/23 06:54:16;;;;;;;71.43;29.47;;;1.40;92.20;;;;;;4993918;28;20478;-65
2021/01/23 06:56:53;;;;;;;73.50;33.53;;;1.40;92.30;;;;;;4993410;28;20445;-63
2021/01/23 06:59:36;;;;;;;70.80;30.93;;;1.40;92.30;;;;;;4993229;28;20397;-66
2021/01/23 07:02:14;;;;;;;66.00;26.83;;;1.40;92.40;;;;;;4992903;28;20030;-64
2021/01/23 07:04:49;;;;;;;64.47;28.23;;;1.40;92.50;;;;;;4993636;28;20053;-66
2021/01/23 07:07:16;;;;;;;71.40;31.83;;;1.40;92.40;;;;;;5010933;28;20057;-65
2021/01/23 07:09:55;;;;;;;70.60;31.23;;;1.40;92.40;;;;;;4993531;28;20034;-65
2021/01/23 07:12:49;;;;;;;70.87;30.57;;;1.40;92.40;;;;;;5010568;28;20034;-65
2021/01/23 07:15:35;;;;;;;71.73;29.67;;;1.40;92.40;;;;;;5010659;28;20052;-65
2021/01/23 07:18:14;;;;;;;85.10;35.10;;;1.40;92.50;;;;;;5011122;28;20064;-65
2021/01/23 07:20:40;;;;;;;69.00;29.03;;;1.40;92.50;;;;;;5010207;28;20041;-65
2021/01/23 07:23:06;;;;;;;75.00;31.30;;;1.50;92.50;;;;;;5011022;28;20037;-65
2021/01/23 07:25:32;;;;;;;67.30;27.23;;;1.50;92.50;;;;;;5010659;28;20498;-65
2021/01/23 07:27:58;;;;;;;72.13;28.73;;;1.50;92.60;;;;;;5010971;28;20037;-65
2021/01/23 07:30:24;;;;;;;71.23;29.43;;;1.50;92.80;;;;;;5010645;28;20037;-65
2021/01/23 07:32:50;;;;;;;69.70;29.57;;;1.50;92.60;;;;;;5010318;28;20048;-65
2021/01/23 07:35:18;;;;;;;69.57;29.33;;;1.50;92.60;;;;;;5009745;28;20029;-65
2021/01/23 07:37:50;;;;;;;79.97;34.07;;;1.60;92.60;;;;;;5010358;28;20061;-65
2021/01/23 07:40:20;;;;;;;78.93;31.27;;;1.60;92.60;;;;;;5010385;28;20049;-64
2021/01/23 07:42:46;;;;;;;62.70;28.20;;;1.60;92.60;;;;;;5009511;28;20041;-67
2021/01/23 07:45:14;;;;;;;72.37;30.30;;;1.60;92.70;;;;;;5010900;28;20053;-66
2021/01/23 07:47:40;;;;;;;69.33;29.63;;;1.60;92.70;;;;;;4990799;28;20382;-65
2021/01/23 07:50:13;;;;;;;64.33;28.17;;;1.60;92.80;;;;;;4999722;28;20499;-65
2021/01/23 07:52:40;;;;;;;65.93;28.17;;;1.70;92.80;;;;;;4996063;28;20045;-66
2021/01/23 07:55:08;;;;;;;75.73;32.80;;;1.70;92.80;;;;;;4969640;28;20745;-65
2021/01/23 07:57:34;;;;;;;67.63;28.77;;;1.70;92.80;;;;;;4998675;28;20037;-65
2021/01/23 08:00:00;;;;;;;57.70;27.07;;;1.70;92.80;;;;;;4993569;28;20049;-65
2021/01/23 08:02:27;;;;;;;67.73;26.80;;;1.80;92.90;;;;;;5014724;28;20030;-66
2021/01/23 08:04:56;;;;;;;65.50;28.07;;;1.80;92.90;;;;;;5009252;28;20072;-63
2021/01/23 08:07:45;;;;;;;65.63;29.23;;;1.80;92.80;;;;;;4991310;28;20093;-65
2021/01/23 08:10:16;;;;;;;57.47;26.13;;;1.90;92.90;;;;;;5001558;28;20034;-66
2021/01/23 08:12:51;;;;;;;67.75;27.50;;;1.90;92.90;;;;;;4997260;28;20462;-65
2021/01/23 08:15:24;;;;;;;61.63;27.83;;;2.00;92.90;;;;;;4995100;28;20038;-65
2021/01/23 08:17:50;;;;;;;59.23;26.93;;;2.00;92.90;;;;;;5013285;28;20038;-65
2021/01/23 08:20:17;;;;;;;59.53;27.53;;;2.10;92.90;;;;;;5011082;28;20101;-64
2021/01/23 08:23:02;;;;;;;63.73;27.57;;;2.10;92.80;;;;;;5012755;28;20034;-66
2021/01/23 08:25:49;;;;;;;58.40;25.93;;;2.10;92.80;;;;;;5012658;28;20067;-65
2021/01/23 08:28:23;;;;;;;57.17;25.77;;;2.10;92.80;;;;;;5012107;28;20132;-65
2021/01/23 08:30:49;;;;;;;57.97;27.77;;;2.20;92.90;;;;;;5012031;28;20041;-66
2021/01/23 08:33:14;;;;;;;58.30;26.30;;;2.20;93.10;;;;;;5012587;28;20042;-66
2021/01/23 08:35:41;;;;;;;54.50;26.27;;;2.30;92.90;;;;;;5012344;28;20030;-64
2021/01/23 08:38:10;;;;;;;58.20;25.90;;;2.40;92.80;;;;;;4991850;28;20046;-65
2021/01/23 08:40:38;;;;;;;54.10;25.40;;;2.50;92.90;;;;;;5010189;28;20044;-65
2021/01/23 08:43:04;;;;;;;56.57;25.40;;;2.50;93.00;;;;;;4995559;28;20044;-65
2021/01/23 08:45:30;;;;;;;53.93;25.67;;;2.60;92.90;;;;;;5012846;28;20461;-65
2021/01/23 08:47:56;;;;;;;49.13;24.10;;;2.60;92.80;;;;;;4994162;28;20120;-65
2021/01/23 08:50:22;;;;;;;52.37;25.43;;;2.70;92.80;;;;;;5006543;28;20129;-65
2021/01/23 08:52:48;;;;;;;50.53;24.93;;;2.70;92.90;;;;;;5008544;28;20035;-66
2021/01/23 08:55:14;;;;;;;53.10;25.27;;;2.80;92.90;;;;;;5007312;28;20066;-65
2021/01/23 08:57:39;;;;;;;53.90;24.10;;;2.80;92.80;;;;;;5013473;28;20463;-65
2021/01/23 09:00:08;;;;;;;51.77;25.40;;;2.90;92.70;;;;;;5004572;28;20108;-65
2021/01/23 09:02:34;;;;;;;53.23;25.53;;;2.90;92.60;;;;;;5001843;28;20046;-65
2021/01/23 09:05:00;;;;;;;47.97;23.30;;;3.00;92.80;;;;;;4995116;28;20061;-65
2021/01/23 09:07:25;;;;;;;46.47;24.03;;;3.10;92.60;;;;;;4991618;28;20117;-65
2021/01/23 09:09:51;;;;;;;52.87;25.00;;;3.10;92.80;;;;;;5008853;28;20034;-64
2021/01/23 09:12:17;;;;;;;47.23;23.30;;;3.30;92.80;;;;;;4991936;28;20597;-64
2021/01/23 09:14:42;;;;;;;55.90;27.43;;;3.30;92.70;;;;;;4992875;28;20034;-65
2021/01/23 09:17:08;;;;;;;57.53;26.87;;;3.50;93.00;;;;;;4992338;28;20048;-66
2021/01/23 09:19:34;;;;;;;48.43;25.33;;;3.60;93.00;;;;;;4992245;28;20100;-65
2021/01/23 09:22:00;;;;;;;45.07;23.53;;;3.80;92.80;;;;;;4991893;28;20077;-65
2021/01/23 09:24:26;;;;;;;46.23;23.50;;;3.90;92.80;;;;;;4987215;28;20682;-65
2021/01/23 09:26:51;;;;;;;43.97;22.40;;;4.10;92.50;;;;;;4999368;28;20100;-65
2021/01/23 09:29:17;;;;;;;43.77;22.63;;;4.10;92.40;;;;;;4979666;28;20034;-65
2021/01/23 09:31:44;;;;;;;45.43;22.73;;;4.30;92.30;;;;;;4992564;28;20030;-66
2021/01/23 09:34:11;;;;;;;43.53;21.00;;;4.40;92.30;;;;;;4994672;28;20044;-65
2021/01/23 09:36:37;;;;;;;41.07;22.20;;;4.40;92.30;;;;;;5006741;28;20038;-66
2021/01/23 09:39:03;;;;;;;45.60;22.00;;;4.50;92.10;;;;;;4987644;28;20041;-64
2021/01/23 09:41:29;;;;;;;44.70;22.43;;;4.60;91.70;;;;;;5005280;28;20044;-65
2021/01/23 09:43:55;;;;;;;39.70;23.03;;;4.70;91.80;;;;;;4985503;28;20055;-66
2021/01/23 09:46:21;;;;;;;41.77;21.67;;;4.70;91.30;;;;;;5000906;28;20034;-66
2021/01/23 09:48:47;;;;;;;44.53;22.07;;;4.80;91.50;;;;;;5004637;28;20030;-65
2021/01/23 09:51:13;;;;;;;39.83;21.83;;;4.80;91.40;;;;;;4981805;28;20042;-65
2021/01/23 09:53:38;;;;;;;42.33;22.13;;;4.90;91.50;;;;;;5010159;28;20045;-65
2021/01/23 09:56:05;;;;;;;44.40;22.17;;;5.00;91.40;;;;;;5011198;28;20044;-65
2021/01/23 09:58:31;;;;;;;39.10;20.70;;;5.10;91.30;;;;;;5011691;28;20042;-66
2021/01/23 10:00:56;;;;;;;43.03;20.53;;;5.20;90.80;;;;;;5010117;28;20056;-64
2021/01/23 10:03:22;;;;;;;41.27;20.53;;;5.20;91.10;;;;;;5011268;28;20042;-67
2021/01/23 10:05:48;;;;;;;40.60;21.53;;;5.40;91.10;;;;;;4993612;28;20141;-67
2021/01/23 10:08:13;;;;;;;42.20;20.73;;;5.50;91.00;;;;;;5010492;28;20042;-65
2021/01/23 10:10:39;;;;;;;41.43;23.50;;;5.50;90.70;;;;;;5010895;28;20037;-64
2021/01/23 10:13:05;;;;;;;36.20;20.67;;;5.50;90.00;;;;;;5010973;28;20058;-66
2021/01/23 10:15:32;;;;;;;37.13;21.63;;;5.40;90.00;;;;;;5011460;28;20041;-65
2021/01/23 10:18:02;;;;;;;40.37;22.67;;;5.40;90.30;;;;;;5012117;28;20108;-64
2021/01/23 10:20:28;;;;;;;44.47;23.87;;;5.40;90.30;;;;;;5008901;28;20103;-65
2021/01/23 10:22:55;;;;;;;42.40;23.93;;;5.50;90.10;;;;;;4999112;28;20121;-65
2021/01/23 10:25:21;;;;;;;44.00;23.07;;;5.50;90.30;;;;;;4991416;28;20335;-65
2021/01/23 10:27:48;;;;;;;39.90;20.97;;;5.60;90.30;;;;;;4990122;28;20031;-65
2021/01/23 10:30:14;;;;;;;41.87;23.93;;;5.70;89.90;;;;;;4985780;28;20035;-65
2021/01/23 10:32:40;;;;;;;45.50;24.17;;;5.70;89.70;;;;;;4990183;28;20035;-65
2021/01/23 10:35:06;;;;;;;43.93;22.60;;;5.70;90.10;;;;;;4991959;28;20031;-66
2021/01/23 10:37:32;;;;;;;40.07;22.00;;;5.80;89.60;;;;;;4992063;28;20085;-66
2021/01/23 10:39:58;;;;;;;44.67;23.07;;;5.80;88.90;;;;;;4991399;28;20042;-64
2021/01/23 10:42:23;;;;;;;42.57;21.90;;;5.90;89.20;;;;;;4991582;28;20034;-64
2021/01/23 10:44:49;;;;;;;41.13;22.80;;;6.00;89.00;;;;;;4998495;28;20048;-66
2021/01/23 10:47:15;;;;;;;40.07;22.40;;;6.10;89.50;;;;;;4991717;28;20403;-65
2021/01/23 10:49:40;;;;;;;37.50;21.67;;;6.20;88.40;;;;;;4991854;28;20038;-65
2021/01/23 10:52:07;;;;;;;42.77;23.00;;;6.20;87.90;;;;;;4983951;28;20042;-66
2021/01/23 10:54:34;;;;;;;38.90;21.43;;;6.00;87.10;;;;;;4991802;28;20492;-65
2021/01/23 10:57:02;;;;;;;41.47;20.73;;;5.80;87.00;;;;;;4991243;28;20038;-66
2021/01/23 10:59:28;;;;;;;37.67;21.37;;;5.80;87.70;;;;;;4987539;28;20034;-64
2021/01/23 11:01:54;;;;;;;38.43;21.20;;;5.70;87.90;;;;;;4990457;28;20053;-66
2021/01/23 11:04:20;;;;;;;40.57;21.40;;;5.80;88.40;;;;;;4970199;28;20038;-66
2021/01/23 11:06:45;;;;;;;36.30;20.27;;;6.00;88.60;;;;;;4991732;28;20066;-65
2021/01/23 11:09:11;;;;;;;40.50;21.57;;;6.30;88.40;;;;;;4968650;28;20069;-66
2021/01/23 11:11:36;;;;;;;34.10;19.90;;;6.60;88.00;;;;;;4990921;28;20387;-66
2021/01/23 11:14:02;;;;;;;34.30;18.47;;;6.90;87.00;;;;;;4983999;28;20053;-65
2021/01/23 11:16:29;;;;;;;35.17;19.17;;;7.10;85.50;;;;;;4990988;28;20104;-66
2021/01/23 11:18:55;;;;;;;33.27;19.73;;;7.10;85.00;;;;;;4991351;28;20088;-65
2021/01/23 11:21:20;;;;;;;34.87;19.23;;;7.00;84.40;;;;;;4990338;28;20133;-65
2021/01/23 11:23:46;;;;;;;35.83;18.50;;;6.80;84.20;;;;;;4991377;28;20522;-67
2021/01/23 11:26:12;;;;;;;35.70;20.20;;;6.80;84.40;;;;;;4991628;28;20038;-66
2021/01/23 11:28:39;;;;;;;34.97;19.13;;;6.70;84.50;;;;;;4994482;28;20066;-64
2021/01/23 11:31:05;;;;;;;34.30;18.63;;;6.70;84.00;;;;;;4994572;28;20116;-65
2021/01/23 11:33:31;;;;;;;36.67;19.20;;;6.70;84.10;;;;;;4994715;28;20042;-66
2021/01/23 11:35:57;;;;;;;35.97;18.63;;;6.70;83.90;;;;;;4995293;28;20042;-65
2021/01/23 11:38:23;;;;;;;31.23;18.40;;;6.80;83.80;;;;;;4990501;28;20054;-66
2021/01/23 11:40:49;;;;;;;34.97;18.00;;;6.80;83.20;;;;;;4994072;28;20030;-65
2021/01/23 11:43:14;;;;;;;30.77;17.83;;;6.80;83.20;;;;;;5005688;28;20046;-65
2021/01/23 11:45:41;;;;;;;36.30;18.83;;;6.90;83.40;;;;;;4994182;28;20066;-66
2021/01/23 11:48:08;;;;;;;32.33;17.93;;;7.00;83.90;;;;;;4994612;28;20057;-66
2021/01/23 11:50:34;;;;;;;32.40;17.97;;;7.10;82.60;;;;;;4991521;28;20034;-64
2021/01/23 11:53:00;;;;;;;32.90;17.30;;;7.00;81.00;;;;;;4994553;28;20038;-65
2021/01/23 11:55:26;;;;;;;33.30;17.63;;;6.80;81.50;;;;;;4994975;28;20401;-64
2021/01/23 11:57:51;;;;;;;35.27;18.10;;;6.70;82.30;;;;;;4994977;28;20046;-66
2021/01/23 12:00:19;;;;;;;30.40;16.87;;;6.70;82.50;;;;;;4993995;28;20038;-64
2021/01/23 12:02:45;;;;;;;32.43;17.57;;;6.70;82.40;;;;;;4991782;28;20050;-64
2021/01/23 12:05:18;;;;;;;32.20;18.43;;;6.80;82.40;;;;;;4994321;28;20039;-65
2021/01/23 12:07:45;;;;;;;31.33;16.70;;;6.90;82.40;;;;;;4994737;28;20062;-65
2021/01/23 12:10:11;;;;;;;31.20;16.07;;;6.80;81.30;;;;;;4993968;28;20492;-66
2021/01/23 12:12:37;;;;;;;29.30;16.03;;;6.80;81.40;;;;;;4994453;28;20061;-65
2021/01/23 12:15:03;;;;;;;25.77;15.17;;;6.70;81.00;;;;;;4994572;28;20062;-64
2021/01/23 12:17:29;;;;;;;30.30;16.90;;;6.50;80.40;;;;;;4993620;28;20105;-65
2021/01/23 12:19:54;;;;;;;31.37;16.30;;;6.30;80.50;;;;;;4985336;28;20045;-66
2021/01/23 12:22:20;;;;;;;31.43;17.30;;;6.10;81.30;;;;;;4993772;28;20116;-65
2021/01/23 12:24:46;;;;;;;28.03;15.80;;;6.10;81.30;;;;;;4992656;28;20046;-63
2021/01/23 12:27:12;;;;;;;30.87;17.80;;;6.00;81.70;;;;;;4988413;28;20034;-67
2021/01/23 12:29:38;;;;;;;33.93;17.07;;;6.10;81.90;;;;;;4993819;28;20034;-64
2021/01/23 12:32:06;;;;;;;31.77;16.63;;;6.10;81.50;;;;;;4986267;28;20510;-66
2021/01/23 12:34:32;;;;;;;30.97;16.53;;;6.10;81.50;;;;;;4991860;28;20038;-65
2021/01/23 12:36:58;;;;;;;30.27;17.07;;;6.10;81.20;;;;;;4994140;28;20038;-65
2021/01/23 12:39:24;;;;;;;28.67;16.40;;;6.10;81.10;;;;;;4989139;28;20247;-65
2021/01/23 12:41:50;;;;;;;30.63;15.60;;;6.10;81.60;;;;;;4983294;28;20066;-66